Time;durP1;ratioP1;P1;durP2;ratioP2;P2;SDS_P1;SDS_P2;PMS_P1;PMS_P2;Temp;Humidity;BMP_temperature;BMP_pressure;BME280_temperature;BME280_humidity;BME280_pressure;Samples;Min_cycle;Max_cycle;Signal;HPM_P1;HPM_P2
2021/07/22 00:00:12;;;;;;;23.25;13.32;;;;;;;;;;5032464;28;39730;-77
2021/07/22 00:02:38;;;;;;;18.95;13.10;;;;;;;;;;5031790;28;39172;-78
2021/07/22 00:05:05;;;;;;;23.45;14.43;;;;;;;;;;5033319;28;38606;-78
2021/07/22 00:07:32;;;;;;;26.90;14.07;;;;;;;;;;5035899;28;37786;-76
2021/07/22 00:09:58;;;;;;;22.70;13.57;;;;;;;;;;5039866;28;39452;-78
2021/07/22 00:12:24;;;;;;;19.35;13.00;;;;;;;;;;5050212;28;39559;-77
2021/07/22 00:14:51;;;;;;;20.90;13.43;;;;;;;;;;5035033;28;38420;-78
2021/07/22 00:17:17;;;;;;;20.45;12.88;;;;;;;;;;5031480;28;38671;-79
2021/07/22 00:19:43;;;;;;;19.30;13.60;;;;;;;;;;5033655;28;41031;-77
2021/07/22 00:22:10;;;;;;;22.33;13.88;;;;;;;;;;5037639;28;39923;-78
2021/07/22 00:24:36;;;;;;;22.15;13.27;;;;;;;;;;5012029;28;39173;-78
2021/07/22 00:27:03;;;;;;;21.52;12.88;;;;;;;;;;5033786;28;37982;-77
2021/07/22 00:29:31;;;;;;;20.25;13.20;;;;;;;;;;5031362;28;40028;-78
2021/07/22 00:32:00;;;;;;;20.35;13.18;;;;;;;;;;5026786;28;38931;-78
2021/07/22 00:34:27;;;;;;;20.17;12.52;;;;;;;;;;5049991;28;37285;-76
2021/07/22 00:36:53;;;;;;;22.30;14.55;;;;;;;;;;5029163;28;37430;-77
2021/07/22 00:39:19;;;;;;;17.23;11.77;;;;;;;;;;5028660;28;37614;-76
2021/07/22 00:41:46;;;;;;;16.90;12.32;;;;;;;;;;5034458;28;38115;-76
2021/07/22 00:44:12;;;;;;;17.33;11.55;;;;;;;;;;5032861;28;39172;-77
2021/07/22 00:46:39;;;;;;;15.07;9.80;;;;;;;;;;5027223;28;37369;-77
2021/07/22 00:49:09;;;;;;;17.05;11.05;;;;;;;;;;5028578;28;39695;-76
2021/07/22 00:51:35;;;;;;;17.65;11.23;;;;;;;;;;5032040;28;38579;-77
2021/07/22 00:54:01;;;;;;;14.20;10.15;;;;;;;;;;5025446;28;37453;-78
2021/07/22 00:56:28;;;;;;;18.85;11.10;;;;;;;;;;5043904;28;35631;-77
2021/07/22 00:58:54;;;;;;;19.17;12.07;;;;;;;;;;5027396;28;38956;-77
2021/07/22 01:01:20;;;;;;;16.00;11.10;;;;;;;;;;5027612;28;38928;-77
2021/07/22 01:03:47;;;;;;;21.00;13.05;;;;;;;;;;5028743;28;38519;-78
2021/07/22 01:06:13;;;;;;;17.35;11.13;;;;;;;;;;5025425;28;37979;-77
2021/07/22 01:08:39;;;;;;;18.92;11.93;;;;;;;;;;5028566;28;39737;-77
2021/07/22 01:11:06;;;;;;;21.58;12.27;;;;;;;;;;5028896;28;37763;-78
2021/07/22 01:13:32;;;;;;;19.42;12.50;;;;;;;;;;5028714;28;39362;-78
2021/07/22 01:15:59;;;;;;;23.70;12.55;;;;;;;;;;5027113;28;37934;-78
2021/07/22 01:18:25;;;;;;;21.15;12.45;;;;;;;;;;5025777;28;39216;-78
2021/07/22 01:20:51;;;;;;;18.65;12.73;;;;;;;;;;5022112;28;39708;-78
2021/07/22 01:23:18;;;;;;;22.45;12.65;;;;;;;;;;5029341;28;40574;-78
2021/07/22 01:25:44;;;;;;;15.07;11.43;;;;;;;;;;5026909;28;37804;-78
2021/07/22 01:28:10;;;;;;;20.88;13.02;;;;;;;;;;5031545;28;39918;-77
2021/07/22 01:30:37;;;;;;;18.88;11.35;;;;;;;;;;5048409;28;39903;-78
2021/07/22 01:33:04;;;;;;;20.75;13.90;;;;;;;;;;5031027;28;39338;-77
2021/07/22 01:35:31;;;;;;;22.08;13.63;;;;;;;;;;5028479;28;34559;-78
2021/07/22 01:37:57;;;;;;;21.50;12.90;;;;;;;;;;5037022;28;39847;-77
2021/07/22 01:40:24;;;;;;;20.42;13.32;;;;;;;;;;5035277;28;38635;-78
2021/07/22 01:42:50;;;;;;;21.05;14.50;;;;;;;;;;5035181;28;40072;-77
2021/07/22 01:45:16;;;;;;;19.80;13.00;;;;;;;;;;5034785;28;36604;-77
2021/07/22 01:47:43;;;;;;;24.85;14.70;;;;;;;;;;5031861;28;39411;-78
2021/07/22 01:50:10;;;;;;;23.27;14.48;;;;;;;;;;5031698;28;38768;-78
2021/07/22 01:52:36;;;;;;;22.23;14.90;;;;;;;;;;5036880;28;40448;-78
2021/07/22 01:55:03;;;;;;;23.63;14.88;;;;;;;;;;5029528;28;35675;-77
2021/07/22 01:57:29;;;;;;;22.73;14.40;;;;;;;;;;5046811;28;39842;-78
2021/07/22 02:00:04;;;;;;;25.10;14.32;;;;;;;;;;5029609;28;38737;-77
2021/07/22 02:02:31;;;;;;;23.50;15.40;;;;;;;;;;5032208;28;47164;-78
2021/07/22 02:04:58;;;;;;;26.02;16.13;;;;;;;;;;5034287;28;37846;-78
2021/07/22 02:07:24;;;;;;;27.08;17.00;;;;;;;;;;5035774;28;39400;-77
2021/07/22 02:09:51;;;;;;;28.70;17.17;;;;;;;;;;5034275;28;38600;-78
2021/07/22 02:12:17;;;;;;;27.80;17.20;;;;;;;;;;5034581;28;40562;-78
2021/07/22 02:14:44;;;;;;;27.83;17.60;;;;;;;;;;5035463;28;37307;-78
2021/07/22 02:17:12;;;;;;;26.55;17.48;;;;;;;;;;5035275;28;40378;-78
2021/07/22 02:19:38;;;;;;;25.35;16.08;;;;;;;;;;5036687;28;39023;-78
2021/07/22 02:22:05;;;;;;;31.60;17.77;;;;;;;;;;5038553;28;38162;-77
2021/07/22 02:24:31;;;;;;;25.63;17.40;;;;;;;;;;5041689;28;38013;-78
2021/07/22 02:27:01;;;;;;;26.38;17.35;;;;;;;;;;5031567;28;39888;-78
2021/07/22 02:29:27;;;;;;;27.10;18.50;;;;;;;;;;5030716;28;48357;-77
2021/07/22 02:31:54;;;;;;;31.00;17.50;;;;;;;;;;5028763;28;41084;-77
2021/07/22 02:34:20;;;;;;;26.80;18.23;;;;;;;;;;5030324;28;37754;-77
2021/07/22 02:36:46;;;;;;;32.67;19.55;;;;;;;;;;5030660;28;38843;-77
2021/07/22 02:39:13;;;;;;;29.35;19.35;;;;;;;;;;5034784;28;39028;-77
2021/07/22 02:41:39;;;;;;;31.42;19.00;;;;;;;;;;5035742;28;39505;-78
2021/07/22 02:44:05;;;;;;;27.95;17.83;;;;;;;;;;5036529;28;37547;-77
2021/07/22 02:46:35;;;;;;;30.85;19.17;;;;;;;;;;5033415;28;39342;-76
2021/07/22 02:49:01;;;;;;;27.85;17.67;;;;;;;;;;5034270;28;39174;-77
2021/07/22 02:51:28;;;;;;;32.63;19.02;;;;;;;;;;5032191;28;48315;-77
2021/07/22 02:53:54;;;;;;;31.70;19.90;;;;;;;;;;5034672;28;37756;-77
2021/07/22 02:56:20;;;;;;;29.95;18.02;;;;;;;;;;5032557;28;38609;-77
2021/07/22 02:58:47;;;;;;;28.58;18.73;;;;;;;;;;5028075;28;38985;-77
2021/07/22 03:01:13;;;;;;;27.38;18.45;;;;;;;;;;5026941;28;39671;-78
2021/07/22 03:03:39;;;;;;;29.80;18.38;;;;;;;;;;5033003;28;39726;-78
2021/07/22 03:06:06;;;;;;;29.85;18.77;;;;;;;;;;5033924;28;40648;-77
2021/07/22 03:08:32;;;;;;;31.33;19.48;;;;;;;;;;5031061;28;39521;-77
2021/07/22 03:10:59;;;;;;;30.92;19.60;;;;;;;;;;5031255;28;39263;-77
2021/07/22 03:13:25;;;;;;;29.05;19.13;;;;;;;;;;5024958;28;38901;-77
2021/07/22 03:15:52;;;;;;;29.88;20.15;;;;;;;;;;5033084;28;38460;-77
2021/07/22 03:18:18;;;;;;;32.22;18.75;;;;;;;;;;5032552;28;37796;-77
2021/07/22 03:20:44;;;;;;;31.48;19.67;;;;;;;;;;5031340;28;37185;-77
2021/07/22 03:23:11;;;;;;;32.40;19.05;;;;;;;;;;5033740;28;37142;-77
2021/07/22 03:25:37;;;;;;;28.58;18.42;;;;;;;;;;5031509;28;39476;-77
2021/07/22 03:28:04;;;;;;;28.85;18.38;;;;;;;;;;5037851;28;39185;-77
2021/07/22 03:30:31;;;;;;;35.50;20.60;;;;;;;;;;5032518;28;38385;-77
2021/07/22 03:32:57;;;;;;;32.97;20.17;;;;;;;;;;5036030;28;37909;-77
2021/07/22 03:35:23;;;;;;;32.35;20.33;;;;;;;;;;5036436;28;40444;-77
2021/07/22 03:37:50;;;;;;;31.63;20.10;;;;;;;;;;5036207;28;40114;-79
2021/07/22 03:40:16;;;;;;;36.10;21.17;;;;;;;;;;5039014;28;38549;-78
2021/07/22 03:42:43;;;;;;;34.15;20.67;;;;;;;;;;5030422;28;37865;-77
2021/07/22 03:45:09;;;;;;;34.30;20.83;;;;;;;;;;5032687;28;38635;-76
2021/07/22 03:47:36;;;;;;;33.40;21.08;;;;;;;;;;5053584;28;39108;-77
2021/07/22 03:50:02;;;;;;;32.28;21.60;;;;;;;;;;5035175;28;39317;-77
2021/07/22 03:52:29;;;;;;;33.42;21.75;;;;;;;;;;5034919;28;35769;-77
2021/07/22 03:54:55;;;;;;;34.25;21.10;;;;;;;;;;5032969;28;40026;-76
2021/07/22 03:57:22;;;;;;;34.05;21.85;;;;;;;;;;5034376;28;40181;-76
2021/07/22 03:59:48;;;;;;;32.67;21.48;;;;;;;;;;5034602;28;40459;-76
2021/07/22 04:02:14;;;;;;;32.75;21.52;;;;;;;;;;5033060;28;35729;-76
2021/07/22 04:04:41;;;;;;;37.78;23.65;;;;;;;;;;5027635;28;39431;-77
2021/07/22 04:07:07;;;;;;;35.88;20.88;;;;;;;;;;5032957;28;40550;-76
2021/07/22 04:09:34;;;;;;;37.08;21.15;;;;;;;;;;5034001;28;40314;-77
2021/07/22 04:12:01;;;;;;;33.60;22.95;;;;;;;;;;5033887;28;37060;-77
2021/07/22 04:14:27;;;;;;;32.60;20.17;;;;;;;;;;5036113;28;48589;-76
2021/07/22 04:16:53;;;;;;;33.67;21.27;;;;;;;;;;5038586;28;38609;-76
2021/07/22 04:19:20;;;;;;;31.75;19.90;;;;;;;;;;5036252;28;39435;-76
2021/07/22 04:21:46;;;;;;;33.35;19.80;;;;;;;;;;5032638;28;37871;-76
2021/07/22 04:24:13;;;;;;;28.67;19.25;;;;;;;;;;5029183;28;38067;-76
2021/07/22 04:26:39;;;;;;;34.17;19.45;;;;;;;;;;5031027;28;39105;-76
2021/07/22 04:29:05;;;;;;;36.22;20.90;;;;;;;;;;5029493;28;38851;-76
2021/07/22 04:31:32;;;;;;;32.70;19.90;;;;;;;;;;5028426;28;36582;-76
2021/07/22 04:33:58;;;;;;;30.60;18.70;;;;;;;;;;5029433;28;39914;-77
2021/07/22 04:36:24;;;;;;;30.65;19.80;;;;;;;;;;5032093;28;39557;-76
2021/07/22 04:38:51;;;;;;;27.38;18.58;;;;;;;;;;5030864;28;40562;-76
2021/07/22 04:41:17;;;;;;;29.48;17.95;;;;;;;;;;5032790;28;38270;-76
2021/07/22 04:43:44;;;;;;;25.95;16.88;;;;;;;;;;5031029;28;38820;-77
2021/07/22 04:46:10;;;;;;;25.73;17.00;;;;;;;;;;5030497;28;39095;-77
2021/07/22 04:48:37;;;;;;;23.33;16.55;;;;;;;;;;5047308;28;38214;-77
2021/07/22 04:51:05;;;;;;;22.98;14.73;;;;;;;;;;5026832;28;37195;-76
2021/07/22 04:53:32;;;;;;;24.25;15.55;;;;;;;;;;5031263;28;40733;-77
2021/07/22 04:55:58;;;;;;;21.90;14.75;;;;;;;;;;5036721;28;38586;-77
2021/07/22 04:58:25;;;;;;;23.73;16.00;;;;;;;;;;5038853;28;38639;-78
2021/07/22 05:00:53;;;;;;;23.95;13.10;;;;;;;;;;5031436;28;37911;-77
2021/07/22 05:03:20;;;;;;;17.05;13.52;;;;;;;;;;5034487;28;39076;-77
2021/07/22 05:05:46;;;;;;;22.02;14.10;;;;;;;;;;5032029;28;40015;-77
2021/07/22 05:08:13;;;;;;;20.10;13.68;;;;;;;;;;5036875;28;41203;-77
2021/07/22 05:10:39;;;;;;;20.88;13.75;;;;;;;;;;5036325;28;37388;-77
2021/07/22 05:13:06;;;;;;;20.40;13.88;;;;;;;;;;5036259;28;40801;-77
2021/07/22 05:15:33;;;;;;;17.48;12.50;;;;;;;;;;5037489;28;38826;-78
2021/07/22 05:17:59;;;;;;;21.92;12.38;;;;;;;;;;5036255;28;38890;-78
2021/07/22 05:20:25;;;;;;;16.20;11.90;;;;;;;;;;5036595;28;38251;-78
2021/07/22 05:22:52;;;;;;;17.35;11.30;;;;;;;;;;5039122;28;40247;-78
2021/07/22 05:25:18;;;;;;;14.48;10.40;;;;;;;;;;5034304;28;37754;-78
2021/07/22 05:27:45;;;;;;;16.55;11.45;;;;;;;;;;5038121;28;38570;-78
2021/07/22 05:30:11;;;;;;;17.08;10.27;;;;;;;;;;5038928;28;37206;-79
2021/07/22 05:32:38;;;;;;;14.95;10.85;;;;;;;;;;5033404;28;40670;-78
2021/07/22 05:35:04;;;;;;;15.27;10.60;;;;;;;;;;5052878;28;39478;-78
2021/07/22 05:37:31;;;;;;;15.25;10.32;;;;;;;;;;5037990;28;47277;-78
2021/07/22 05:39:57;;;;;;;14.98;10.95;;;;;;;;;;5038906;28;38130;-78
2021/07/22 05:42:24;;;;;;;12.70;9.90;;;;;;;;;;5034042;28;38301;-78
2021/07/22 05:44:50;;;;;;;14.25;10.00;;;;;;;;;;5037060;28;40437;-78
2021/07/22 05:47:16;;;;;;;13.10;9.55;;;;;;;;;;5034399;28;38629;-79
2021/07/22 05:49:43;;;;;;;10.95;9.63;;;;;;;;;;5038786;28;38133;-78
2021/07/22 05:52:09;;;;;;;12.02;10.25;;;;;;;;;;5035220;28;40514;-78
2021/07/22 05:54:36;;;;;;;12.57;9.38;;;;;;;;;;5037818;28;38991;-78
2021/07/22 05:57:02;;;;;;;16.52;10.52;;;;;;;;;;5038620;28;38458;-79
2021/07/22 05:59:29;;;;;;;18.63;10.35;;;;;;;;;;5036742;28;36466;-78
2021/07/22 06:01:55;;;;;;;15.57;10.15;;;;;;;;;;5039378;28;38141;-78
2021/07/22 06:04:22;;;;;;;15.98;10.45;;;;;;;;;;5039406;28;38771;-78
2021/07/22 06:06:48;;;;;;;13.07;9.15;;;;;;;;;;5040735;28;38857;-78
2021/07/22 06:09:14;;;;;;;13.20;9.05;;;;;;;;;;5046388;28;37191;-78
2021/07/22 06:11:41;;;;;;;12.52;9.90;;;;;;;;;;5053130;28;38999;-78
2021/07/22 06:14:07;;;;;;;11.57;9.48;;;;;;;;;;5054797;28;38569;-78
2021/07/22 06:16:34;;;;;;;12.05;9.20;;;;;;;;;;5047260;28;38042;-78
2021/07/22 06:19:02;;;;;;;16.48;9.27;;;;;;;;;;5040149;28;37543;-78
2021/07/22 06:21:28;;;;;;;15.23;9.40;;;;;;;;;;5050972;28;46971;-78
2021/07/22 06:23:55;;;;;;;13.82;9.65;;;;;;;;;;5048878;28;39673;-78
2021/07/22 06:26:21;;;;;;;14.23;9.20;;;;;;;;;;5038638;28;39548;-75
2021/07/22 06:28:48;;;;;;;10.70;8.50;;;;;;;;;;5058825;28;37949;-75
2021/07/22 06:31:14;;;;;;;14.57;8.52;;;;;;;;;;5056354;28;40045;-75
2021/07/22 06:33:40;;;;;;;14.13;8.25;;;;;;;;;;5045531;28;41491;-75
2021/07/22 06:36:07;;;;;;;12.45;8.38;;;;;;;;;;5048223;28;39037;-75
2021/07/22 06:38:33;;;;;;;8.65;7.25;;;;;;;;;;5047016;28;38458;-75
2021/07/22 06:41:00;;;;;;;11.30;8.15;;;;;;;;;;5050000;28;41248;-76
2021/07/22 06:43:27;;;;;;;10.50;7.68;;;;;;;;;;5028979;28;40058;-75
2021/07/22 06:45:53;;;;;;;13.45;8.27;;;;;;;;;;5059408;28;39414;-75
2021/07/22 06:48:19;;;;;;;11.43;8.10;;;;;;;;;;5048675;28;36707;-75
2021/07/22 06:50:46;;;;;;;8.73;7.50;;;;;;;;;;5039295;28;40033;-75
2021/07/22 06:53:12;;;;;;;9.45;7.22;;;;;;;;;;5036090;28;40220;-75
2021/07/22 06:55:38;;;;;;;12.80;7.75;;;;;;;;;;5035173;28;38473;-76
2021/07/22 06:58:05;;;;;;;9.15;7.57;;;;;;;;;;5059008;28;37302;-75
2021/07/22 07:00:32;;;;;;;9.52;6.85;;;;;;;;;;5041157;28;38875;-75
2021/07/22 07:03:01;;;;;;;10.48;7.88;;;;;;;;;;5046375;28;39492;-75
2021/07/22 07:05:27;;;;;;;8.38;7.45;;;;;;;;;;5045057;28;46928;-76
2021/07/22 07:07:55;;;;;;;10.90;7.53;;;;;;;;;;5047659;28;35571;-75
2021/07/22 07:10:23;;;;;;;9.10;6.93;;;;;;;;;;5061348;28;41225;-75
2021/07/22 07:12:49;;;;;;;9.57;7.72;;;;;;;;;;5049442;28;39054;-75
2021/07/22 07:15:16;;;;;;;7.88;6.70;;;;;;;;;;5045630;28;39729;-75
2021/07/22 07:17:42;;;;;;;9.57;6.80;;;;;;;;;;5049762;28;36406;-75
2021/07/22 07:20:09;;;;;;;9.75;6.85;;;;;;;;;;5046594;28;39700;-75
2021/07/22 07:22:35;;;;;;;10.18;8.15;;;;;;;;;;5048660;28;37906;-75
2021/07/22 07:25:02;;;;;;;12.20;7.70;;;;;;;;;;5040840;28;38562;-75
2021/07/22 07:27:28;;;;;;;11.77;7.10;;;;;;;;;;5052478;28;37653;-76
2021/07/22 07:29:54;;;;;;;10.13;7.65;;;;;;;;;;5047587;28;39414;-75
2021/07/22 07:32:21;;;;;;;9.20;7.25;;;;;;;;;;5043683;28;40163;-76
2021/07/22 07:34:47;;;;;;;12.65;7.68;;;;;;;;;;5041287;28;38980;-77
2021/07/22 07:37:13;;;;;;;13.20;8.18;;;;;;;;;;5049235;28;35657;-77
2021/07/22 07:39:40;;;;;;;10.77;7.25;;;;;;;;;;5047825;28;38710;-76
2021/07/22 07:42:06;;;;;;;10.27;7.25;;;;;;;;;;5063654;28;39124;-76
2021/07/22 07:44:32;;;;;;;11.13;7.18;;;;;;;;;;5048586;28;38875;-77
2021/07/22 07:46:59;;;;;;;10.35;7.40;;;;;;;;;;5053446;28;37586;-77
2021/07/22 07:49:25;;;;;;;12.18;6.70;;;;;;;;;;5058027;28;38761;-77
2021/07/22 07:51:51;;;;;;;9.82;7.47;;;;;;;;;;5052604;28;38254;-76
2021/07/22 07:54:22;;;;;;;9.55;7.05;;;;;;;;;;5051582;28;38576;-77
2021/07/22 07:56:51;;;;;;;9.75;6.38;;;;;;;;;;5048160;28;37113;-77
2021/07/22 07:59:18;;;;;;;10.20;7.10;;;;;;;;;;5049101;28;40366;-78
2021/07/22 08:01:45;;;;;;;10.35;6.97;;;;;;;;;;5047522;28;39425;-77
2021/07/22 08:04:11;;;;;;;9.65;6.25;;;;;;;;;;5052588;28;39738;-76
2021/07/22 08:06:38;;;;;;;8.90;6.30;;;;;;;;;;5053020;28;36960;-81
2021/07/22 08:09:04;;;;;;;8.52;6.57;;;;;;;;;;5040138;28;37683;-79
2021/07/22 08:11:31;;;;;;;6.57;5.78;;;;;;;;;;5047009;28;39903;-78
2021/07/22 08:13:57;;;;;;;11.45;6.38;;;;;;;;;;5034345;28;40236;-77
2021/07/22 08:16:24;;;;;;;8.05;5.68;;;;;;;;;;5055346;28;35532;-78
2021/07/22 08:18:50;;;;;;;7.28;5.80;;;;;;;;;;5045272;28;38975;-77
2021/07/22 08:21:17;;;;;;;8.07;5.82;;;;;;;;;;5052541;28;38898;-77
2021/07/22 08:23:44;;;;;;;7.45;5.80;;;;;;;;;;5040877;28;39072;-77
2021/07/22 08:26:10;;;;;;;8.07;5.97;;;;;;;;;;5050786;28;39094;-77
2021/07/22 08:28:37;;;;;;;8.48;6.25;;;;;;;;;;5043386;28;38673;-77
2021/07/22 08:31:04;;;;;;;8.77;6.15;;;;;;;;;;5040571;28;39682;-77
2021/07/22 08:33:30;;;;;;;8.90;6.65;;;;;;;;;;5045075;28;39035;-77
2021/07/22 08:35:58;;;;;;;8.88;6.50;;;;;;;;;;5047381;28;38767;-77
2021/07/22 08:38:24;;;;;;;9.25;6.30;;;;;;;;;;5045936;28;38618;-77
2021/07/22 08:40:51;;;;;;;7.32;5.57;;;;;;;;;;5049676;28;40547;-77
2021/07/22 08:43:17;;;;;;;6.40;5.63;;;;;;;;;;5045642;28;38838;-77
2021/07/22 08:45:47;;;;;;;7.80;6.35;;;;;;;;;;5045383;28;37914;-78
2021/07/22 08:48:13;;;;;;;8.40;5.93;;;;;;;;;;5049267;28;39785;-78
2021/07/22 08:50:40;;;;;;;7.55;5.55;;;;;;;;;;5048804;28;38758;-78
2021/07/22 08:53:07;;;;;;;6.65;5.70;;;;;;;;;;5051633;28;39766;-78
2021/07/22 08:55:34;;;;;;;6.45;5.10;;;;;;;;;;5042849;28;36790;-77
2021/07/22 08:58:00;;;;;;;7.93;5.20;;;;;;;;;;5044799;28;39545;-77
2021/07/22 09:00:30;;;;;;;7.70;5.45;;;;;;;;;;5037457;28;37469;-79
2021/07/22 09:02:57;;;;;;;7.15;5.63;;;;;;;;;;5042431;28;38932;-78
2021/07/22 09:05:27;;;;;;;10.73;6.40;;;;;;;;;;5037244;28;38744;-78
2021/07/22 09:07:53;;;;;;;7.78;5.47;;;;;;;;;;5048066;28;37617;-77
2021/07/22 09:10:21;;;;;;;7.15;5.07;;;;;;;;;;5036269;28;38699;-78
2021/07/22 09:12:48;;;;;;;6.10;5.43;;;;;;;;;;5048143;28;37486;-78
2021/07/22 09:15:21;;;;;;;6.45;5.30;;;;;;;;;;5047672;28;37844;-78
2021/07/22 09:17:48;;;;;;;7.22;5.15;;;;;;;;;;5048597;28;39284;-78
2021/07/22 09:20:25;;;;;;;5.90;5.13;;;;;;;;;;5034768;28;39213;-78
2021/07/22 09:22:52;;;;;;;5.80;5.20;;;;;;;;;;5044026;28;40054;-78
2021/07/22 09:25:22;;;;;;;7.93;5.38;;;;;;;;;;5059649;28;37274;-77
2021/07/22 09:27:48;;;;;;;6.82;6.13;;;;;;;;;;5055970;28;37689;-78
2021/07/22 09:30:19;;;;;;;7.30;6.03;;;;;;;;;;5056237;28;38591;-78
2021/07/22 09:32:50;;;;;;;8.15;6.45;;;;;;;;;;5053387;28;39955;-78
2021/07/22 09:35:17;;;;;;;6.97;5.45;;;;;;;;;;5060899;28;36187;-79
2021/07/22 09:37:56;;;;;;;6.68;5.30;;;;;;;;;;5045871;28;37731;-79
2021/07/22 09:40:26;;;;;;;6.15;4.90;;;;;;;;;;5042958;28;38765;-78
2021/07/22 09:42:54;;;;;;;7.25;5.45;;;;;;;;;;5063388;28;38896;-79
2021/07/22 09:45:31;;;;;;;7.47;4.70;;;;;;;;;;5047419;28;36131;-78
2021/07/22 09:48:05;;;;;;;6.40;5.32;;;;;;;;;;5048596;28;39823;-79
2021/07/22 09:50:38;;;;;;;7.00;5.53;;;;;;;;;;5050666;28;48904;-81
2021/07/22 09:53:14;;;;;;;6.57;5.45;;;;;;;;;;5050497;28;40087;-78
2021/07/22 09:55:41;;;;;;;6.00;4.75;;;;;;;;;;5046166;28;36892;-78
2021/07/22 09:58:09;;;;;;;5.95;5.18;;;;;;;;;;5045351;28;38309;-78
2021/07/22 10:00:38;;;;;;;7.10;5.28;;;;;;;;;;5045980;28;38287;-78
2021/07/22 10:03:05;;;;;;;9.90;5.20;;;;;;;;;;5046470;28;39493;-78
2021/07/22 10:05:40;;;;;;;8.07;5.28;;;;;;;;;;5042653;28;36039;-78
2021/07/22 10:08:07;;;;;;;6.28;5.60;;;;;;;;;;5045604;28;38925;-78
2021/07/22 10:10:35;;;;;;;8.35;5.70;;;;;;;;;;5039221;28;38125;-78
2021/07/22 10:13:02;;;;;;;6.68;5.40;;;;;;;;;;5043896;28;39993;-79
2021/07/22 10:15:29;;;;;;;5.80;4.90;;;;;;;;;;5041355;28;47844;-78
2021/07/22 10:17:56;;;;;;;6.25;4.85;;;;;;;;;;5045848;28;39367;-79
2021/07/22 10:20:24;;;;;;;5.15;4.65;;;;;;;;;;5055563;28;39463;-80
2021/07/22 10:22:52;;;;;;;7.65;5.50;;;;;;;;;;5058246;28;37661;-79
2021/07/22 10:25:18;;;;;;;10.23;6.20;;;;;;;;;;5047467;28;37082;-79
2021/07/22 10:27:44;;;;;;;5.88;4.53;;;;;;;;;;5055728;28;39665;-79
2021/07/22 10:30:12;;;;;;;6.93;4.78;;;;;;;;;;5048775;28;38860;-79
2021/07/22 10:32:39;;;;;;;7.18;4.90;;;;;;;;;;5044513;28;38088;-79
2021/07/22 10:35:06;;;;;;;6.72;5.55;;;;;;;;;;5049712;28;35942;-79
2021/07/22 10:37:32;;;;;;;5.50;4.90;;;;;;;;;;5049979;28;37845;-79
2021/07/22 10:40:05;;;;;;;6.72;4.88;;;;;;;;;;5052539;28;38178;-79
2021/07/22 10:42:41;;;;;;;5.85;4.88;;;;;;;;;;5054871;28;47529;-79
2021/07/22 10:45:23;;;;;;;6.35;4.97;;;;;;;;;;5055958;28;36830;-79
2021/07/22 10:48:03;;;;;;;6.57;5.28;;;;;;;;;;5058423;28;39406;-78
2021/07/22 10:50:39;;;;;;;7.07;5.05;;;;;;;;;;5059964;28;49156;-79
2021/07/22 10:53:06;;;;;;;7.20;5.28;;;;;;;;;;5067309;28;37809;-79
2021/07/22 10:55:42;;;;;;;9.30;5.53;;;;;;;;;;5054912;28;36930;-79
2021/07/22 10:58:27;;;;;;;4.93;4.32;;;;;;;;;;5066879;28;37859;-79
2021/07/22 11:00:54;;;;;;;7.55;5.53;;;;;;;;;;5049102;28;38587;-79
2021/07/22 11:03:35;;;;;;;7.15;5.40;;;;;;;;;;5058100;28;38746;-80
2021/07/22 11:06:05;;;;;;;6.95;4.75;;;;;;;;;;5049839;28;36847;-78
2021/07/22 11:08:32;;;;;;;6.15;5.25;;;;;;;;;;5047810;28;39438;-77
2021/07/22 11:11:03;;;;;;;7.80;5.78;;;;;;;;;;5048571;28;37682;-77
2021/07/22 11:13:39;;;;;;;6.57;4.65;;;;;;;;;;5049314;28;47109;-77
2021/07/22 11:16:08;;;;;;;5.70;4.72;;;;;;;;;;5051726;28;36930;-76
2021/07/22 11:18:44;;;;;;;6.65;4.63;;;;;;;;;;5040495;28;38043;-77
2021/07/22 11:21:18;;;;;;;5.93;4.97;;;;;;;;;;5050246;28;39118;-77
2021/07/22 11:23:54;;;;;;;7.43;5.43;;;;;;;;;;5050704;28;37589;-79
2021/07/22 11:26:24;;;;;;;6.60;5.20;;;;;;;;;;5049102;28;36326;-79
2021/07/22 11:28:50;;;;;;;7.07;5.00;;;;;;;;;;5054143;28;37954;-79
2021/07/22 11:31:17;;;;;;;7.10;4.90;;;;;;;;;;5043277;28;38497;-77
2021/07/22 11:33:43;;;;;;;5.15;4.32;;;;;;;;;;5047842;28;38784;-79
2021/07/22 11:36:11;;;;;;;7.35;5.03;;;;;;;;;;5048006;28;35830;-78
2021/07/22 11:38:39;;;;;;;5.75;4.55;;;;;;;;;;5043163;28;39058;-77
2021/07/22 11:41:12;;;;;;;7.40;4.88;;;;;;;;;;5053948;28;37919;-78
2021/07/22 11:43:42;;;;;;;6.03;4.10;;;;;;;;;;5037804;28;39737;-77
2021/07/22 11:46:12;;;;;;;7.35;4.68;;;;;;;;;;5047319;28;36834;-80
2021/07/22 11:48:39;;;;;;;6.25;5.03;;;;;;;;;;5057549;28;38975;-78
2021/07/22 11:51:07;;;;;;;6.60;4.90;;;;;;;;;;5046136;28;39313;-78
2021/07/22 11:53:34;;;;;;;6.10;4.88;;;;;;;;;;5040336;28;38470;-78
2021/07/22 11:56:15;;;;;;;5.47;4.55;;;;;;;;;;5061683;28;37051;-78
2021/07/22 11:58:51;;;;;;;6.85;4.50;;;;;;;;;;5059395;28;48128;-78
2021/07/22 12:01:18;;;;;;;4.65;4.07;;;;;;;;;;5049996;28;40192;-78
2021/07/22 12:03:47;;;;;;;5.28;4.75;;;;;;;;;;5064080;28;38483;-78
2021/07/22 12:06:15;;;;;;;6.38;4.72;;;;;;;;;;5058528;28;38205;-78
2021/07/22 12:08:41;;;;;;;5.03;4.53;;;;;;;;;;5044226;28;40115;-78
2021/07/22 12:11:07;;;;;;;7.32;4.32;;;;;;;;;;5050773;28;40437;-78
2021/07/22 12:13:50;;;;;;;5.90;4.75;;;;;;;;;;5045423;28;38964;-78
2021/07/22 12:16:20;;;;;;;5.22;4.35;;;;;;;;;;5041537;28;36583;-77
2021/07/22 12:18:50;;;;;;;5.07;4.57;;;;;;;;;;5030499;28;38773;-78
2021/07/22 12:21:23;;;;;;;5.85;4.70;;;;;;;;;;5058683;28;39023;-78
2021/07/22 12:23:49;;;;;;;6.20;4.95;;;;;;;;;;5038793;28;38454;-77
2021/07/22 12:26:17;;;;;;;7.05;4.80;;;;;;;;;;5053165;28;35549;-78
2021/07/22 12:28:44;;;;;;;6.72;4.22;;;;;;;;;;5040309;28;37655;-78
2021/07/22 12:31:21;;;;;;;5.00;4.28;;;;;;;;;;5046264;28;38638;-78
2021/07/22 12:33:57;;;;;;;6.57;4.93;;;;;;;;;;5043586;28;39062;-77
2021/07/22 12:36:23;;;;;;;6.30;4.75;;;;;;;;;;5054011;28;37742;-78
2021/07/22 12:39:09;;;;;;;5.22;4.60;;;;;;;;;;5047015;28;40622;-77
2021/07/22 12:41:36;;;;;;;6.22;4.30;;;;;;;;;;5037484;28;47487;-79
2021/07/22 12:44:02;;;;;;;7.57;4.68;;;;;;;;;;5043733;28;37567;-78
2021/07/22 12:46:32;;;;;;;8.05;4.57;;;;;;;;;;5051678;28;37100;-79
2021/07/22 12:48:58;;;;;;;6.78;4.90;;;;;;;;;;5052631;28;40689;-78
2021/07/22 12:51:25;;;;;;;5.32;4.18;;;;;;;;;;5051543;28;38661;-79
2021/07/22 12:53:52;;;;;;;5.65;3.72;;;;;;;;;;5052790;28;36741;-79
2021/07/22 12:56:19;;;;;;;6.50;4.05;;;;;;;;;;5046016;28;36176;-77
2021/07/22 12:58:47;;;;;;;6.75;4.95;;;;;;;;;;5048319;28;38560;-79
2021/07/22 13:01:17;;;;;;;5.70;4.40;;;;;;;;;;5052581;28;39394;-78
2021/07/22 13:03:44;;;;;;;8.45;4.47;;;;;;;;;;5056836;28;39272;-79
2021/07/22 13:06:11;;;;;;;8.82;4.75;;;;;;;;;;5048293;28;38117;-78
2021/07/22 13:08:38;;;;;;;6.93;4.50;;;;;;;;;;5057777;28;38149;-79
2021/07/22 13:11:06;;;;;;;5.65;4.30;;;;;;;;;;5050519;28;39049;-79
2021/07/22 13:13:35;;;;;;;9.13;4.70;;;;;;;;;;5056945;28;39695;-78
2021/07/22 13:16:02;;;;;;;6.18;4.50;;;;;;;;;;5045207;28;40616;-78
2021/07/22 13:18:28;;;;;;;5.88;4.55;;;;;;;;;;5043605;28;40063;-78
2021/07/22 13:20:55;;;;;;;7.93;4.88;;;;;;;;;;5042027;28;38883;-79
2021/07/22 13:23:21;;;;;;;7.82;4.88;;;;;;;;;;5043604;28;39406;-78
2021/07/22 13:25:47;;;;;;;6.03;4.40;;;;;;;;;;5046770;28;37484;-78
2021/07/22 13:28:15;;;;;;;7.82;4.45;;;;;;;;;;5057165;28;39118;-78
2021/07/22 13:30:41;;;;;;;6.95;4.70;;;;;;;;;;5045622;28;39396;-78
2021/07/22 13:33:09;;;;;;;9.13;5.47;;;;;;;;;;5046514;28;37220;-78
2021/07/22 13:35:35;;;;;;;5.63;4.55;;;;;;;;;;5061050;28;37327;-78
2021/07/22 13:38:03;;;;;;;6.88;4.60;;;;;;;;;;5042721;28;39803;-77
2021/07/22 13:40:30;;;;;;;6.18;4.38;;;;;;;;;;5042040;28;38755;-78
2021/07/22 13:43:00;;;;;;;8.45;4.57;;;;;;;;;;5048878;28;38627;-78
2021/07/22 13:45:28;;;;;;;5.45;4.75;;;;;;;;;;5043501;28;37975;-78
2021/07/22 13:47:54;;;;;;;5.75;4.45;;;;;;;;;;5038549;28;40039;-78
2021/07/22 13:50:21;;;;;;;5.93;4.43;;;;;;;;;;5053109;28;39373;-78
2021/07/22 13:52:47;;;;;;;6.30;4.30;;;;;;;;;;5032583;28;39294;-78
2021/07/22 13:55:13;;;;;;;8.07;4.68;;;;;;;;;;5040092;28;37937;-77
2021/07/22 13:57:40;;;;;;;6.07;3.90;;;;;;;;;;5042905;28;40336;-78
2021/07/22 14:00:07;;;;;;;4.60;3.78;;;;;;;;;;5046137;28;37593;-78
2021/07/22 14:02:33;;;;;;;7.13;4.18;;;;;;;;;;5039227;28;47201;-78
2021/07/22 14:04:59;;;;;;;4.72;4.28;;;;;;;;;;5057755;28;37727;-79
2021/07/22 14:07:29;;;;;;;5.05;3.80;;;;;;;;;;5054233;28;38811;-80
2021/07/22 14:09:55;;;;;;;3.83;3.50;;;;;;;;;;5059530;28;39288;-79
2021/07/22 14:12:21;;;;;;;6.38;4.03;;;;;;;;;;5050336;28;39438;-79
2021/07/22 14:14:48;;;;;;;6.68;3.75;;;;;;;;;;5057616;28;37586;-79
2021/07/22 14:17:14;;;;;;;5.05;3.72;;;;;;;;;;5049741;28;40405;-79
2021/07/22 14:19:41;;;;;;;6.20;3.50;;;;;;;;;;5058818;28;37686;-79
2021/07/22 14:22:07;;;;;;;6.57;4.38;;;;;;;;;;5059160;28;39928;-80
2021/07/22 14:24:34;;;;;;;7.30;3.92;;;;;;;;;;5057115;28;37225;-79
2021/07/22 14:27:00;;;;;;;5.53;3.90;;;;;;;;;;5057776;28;38057;-79
2021/07/22 14:29:27;;;;;;;5.68;4.50;;;;;;;;;;5072178;28;39781;-79
2021/07/22 14:31:53;;;;;;;6.43;4.55;;;;;;;;;;5056845;28;38642;-79